KLAA

Lamar Municipal Airport

Lamar, Colorado, USA
METAR KLAA 241953Z AUTO 27006KT 10SM FEW055 FEW070 07/M08 A2978 RMK AO2 SLP089 T00721078
Observed Flight Rules
Feb-24 @ 19:53 UTC (20 minutes ago) Visual Flight Rules
Wind Visibility Clouds
270° at 6 knots 10 miles
  • Few at 5,500' AGL
  • Few at 7,000' AGL
Temperatures Readings
Current 7°C / 45°F
Dewpoint -8°C / 18°F
Humidity 34%
Altimeter 29.78" Hg
Pressure 1008.9 hPa
Elevation 1119
METAR KLAA 241953Z AUTO 27006KT 10SM FEW055 FEW070 07/M08 A2978 RMK AO2 SLP089 T00721078
Observed Flight Rules
Feb-24 @ 19:53 UTC
(20 minutes ago)
VFR
Wind Visibility
270° at 6 knots 10 miles
Clouds
  • Few at 5,500' AGL
  • Few at 7,000' AGL
Temperature Dewpoint
7°C / 45°F -8°C / 18°F
Humidity Altimeter Pressure
34% 29.78" Hg 1008.9 hPa